sensor_id;sensor_type;location;lat;lon;timestamp;pressure;altitude;pressure_sealevel;temperature;humidity
44926;BME280;30662;51.210;7.656;2023-02-04T00:00:09;149839.13;;;4.11;100.00
44926;BME280;30662;51.210;7.656;2023-02-04T00:02:36;149818.97;;;4.03;100.00
44926;BME280;30662;51.210;7.656;2023-02-04T00:05:03;149821.50;;;4.04;100.00
44926;BME280;30662;51.210;7.656;2023-02-04T00:07:29;149824.00;;;4.05;100.00
44926;BME280;30662;51.210;7.656;2023-02-04T00:09:55;149805.13;;;3.98;100.00
44926;BME280;30662;51.210;7.656;2023-02-04T00:12:21;149801.34;;;3.96;100.00
44926;BME280;30662;51.210;7.656;2023-02-04T00:14:47;149827.81;;;4.07;100.00
44926;BME280;30662;51.210;7.656;2023-02-04T00:17:13;149812.69;;;4.01;100.00
44926;BME280;30662;51.210;7.656;2023-02-04T00:19:40;149826.56;;;4.06;100.00
44926;BME280;30662;51.210;7.656;2023-02-04T00:22:07;149811.44;;;4.00;100.00
44926;BME280;30662;51.210;7.656;2023-02-04T00:24:34;149818.97;;;4.03;100.00
44926;BME280;30662;51.210;7.656;2023-02-04T00:27:00;149821.50;;;4.04;100.00
44926;BME280;30662;51.210;7.656;2023-02-04T00:29:26;149811.44;;;4.00;100.00
44926;BME280;30662;51.210;7.656;2023-02-04T00:31:52;149817.72;;;4.03;100.00
44926;BME280;30662;51.210;7.656;2023-02-04T00:34:18;149811.44;;;4.00;100.00
44926;BME280;30662;51.210;7.656;2023-02-04T00:36:44;149822.75;;;4.05;100.00
44926;BME280;30662;51.210;7.656;2023-02-04T00:39:12;149840.38;;;4.12;100.00
44926;BME280;30662;51.210;7.656;2023-02-04T00:41:41;149855.50;;;4.18;100.00
44926;BME280;30662;51.210;7.656;2023-02-04T00:44:07;149829.09;;;4.07;100.00
44926;BME280;30662;51.210;7.656;2023-02-04T00:46:33;149815.22;;;4.02;100.00
44926;BME280;30662;51.210;7.656;2023-02-04T00:48:59;149841.66;;;4.12;100.00
44926;BME280;30662;51.210;7.656;2023-02-04T00:51:25;149829.09;;;4.07;100.00
44926;BME280;30662;51.210;7.656;2023-02-04T00:53:50;149829.09;;;4.07;100.00
44926;BME280;30662;51.210;7.656;2023-02-04T00:56:16;149826.56;;;4.06;100.00
44926;BME280;30662;51.210;7.656;2023-02-04T00:58:42;149812.69;;;4.01;100.00
44926;BME280;30662;51.210;7.656;2023-02-04T01:01:08;149802.59;;;3.97;100.00
44926;BME280;30662;51.210;7.656;2023-02-04T01:03:34;149816.47;;;4.02;100.00
44926;BME280;30662;51.210;7.656;2023-02-04T01:06:00;149801.34;;;3.96;100.00
44926;BME280;30662;51.210;7.656;2023-02-04T01:08:25;149811.44;;;4.00;100.00
44926;BME280;30662;51.210;7.656;2023-02-04T01:10:51;149826.56;;;4.06;100.00
44926;BME280;30662;51.210;7.656;2023-02-04T01:13:17;149837.88;;;4.11;100.00
44926;BME280;30662;51.210;7.656;2023-02-04T01:15:43;149851.75;;;4.17;100.00
44926;BME280;30662;51.210;7.656;2023-02-04T01:18:11;149837.88;;;4.11;100.00
44926;BME280;30662;51.210;7.656;2023-02-04T01:20:37;149837.88;;;4.11;100.00
44926;BME280;30662;51.210;7.656;2023-02-04T01:23:03;149835.34;;;4.10;100.00
44926;BME280;30662;51.210;7.656;2023-02-04T01:25:28;149825.31;;;4.06;100.00
44926;BME280;30662;51.210;7.656;2023-02-04T01:27:54;149825.31;;;4.06;100.00
44926;BME280;30662;51.210;7.656;2023-02-04T01:30:20;149812.69;;;4.01;100.00
44926;BME280;30662;51.210;7.656;2023-02-04T01:32:46;149830.34;;;4.08;100.00
44926;BME280;30662;51.210;7.656;2023-02-04T01:35:12;149824.00;;;4.05;100.00
44926;BME280;30662;51.210;7.656;2023-02-04T01:37:38;149844.22;;;4.13;100.00
44926;BME280;30662;51.210;7.656;2023-02-04T01:40:04;149837.88;;;4.11;100.00
44926;BME280;30662;51.210;7.656;2023-02-04T01:42:30;149827.81;;;4.07;100.00
44926;BME280;30662;51.210;7.656;2023-02-04T01:44:57;149858.03;;;4.19;100.00
44926;BME280;30662;51.210;7.656;2023-02-04T01:47:23;149806.38;;;3.98;100.00
44926;BME280;30662;51.210;7.656;2023-02-04T01:49:52;149825.31;;;4.06;100.00
44926;BME280;30662;51.210;7.656;2023-02-04T01:52:19;149834.09;;;4.09;100.00
44926;BME280;30662;51.210;7.656;2023-02-04T01:54:45;149832.84;;;4.09;100.00
44926;BME280;30662;51.210;7.656;2023-02-04T01:57:14;149870.63;;;4.24;100.00
44926;BME280;30662;51.210;7.656;2023-02-04T01:59:43;149839.13;;;4.11;100.00
44926;BME280;30662;51.210;7.656;2023-02-04T02:02:38;149836.63;;;4.10;100.00
44926;BME280;30662;51.210;7.656;2023-02-04T02:05:09;149830.34;;;4.08;100.00
44926;BME280;30662;51.210;7.656;2023-02-04T02:07:37;149853.00;;;4.17;100.00
44926;BME280;30662;51.210;7.656;2023-02-04T02:10:05;149854.25;;;4.18;100.00
44926;BME280;30662;51.210;7.656;2023-02-04T02:12:31;149858.03;;;4.19;100.00
44926;BME280;30662;51.210;7.656;2023-02-04T02:14:58;149831.59;;;4.08;100.00
44926;BME280;30662;51.210;7.656;2023-02-04T02:17:25;149842.94;;;4.13;100.00
44926;BME280;30662;51.210;7.656;2023-02-04T02:19:51;149830.34;;;4.08;100.00
44926;BME280;30662;51.210;7.656;2023-02-04T02:24:48;149861.84;;;4.21;100.00
44926;BME280;30662;51.210;7.656;2023-02-04T02:27:14;149851.75;;;4.17;100.00
44926;BME280;30662;51.210;7.656;2023-02-04T02:29:40;149821.50;;;4.04;100.00
44926;BME280;30662;51.210;7.656;2023-02-04T02:32:07;149832.84;;;4.09;100.00
44926;BME280;30662;51.210;7.656;2023-02-04T02:34:34;149839.13;;;4.11;100.00
44926;BME280;30662;51.210;7.656;2023-02-04T02:37:01;149861.84;;;4.21;100.00
44926;BME280;30662;51.210;7.656;2023-02-04T02:39:28;149842.94;;;4.13;100.00
44926;BME280;30662;51.210;7.656;2023-02-04T02:41:55;149824.00;;;4.05;100.00
44926;BME280;30662;51.210;7.656;2023-02-04T02:44:22;149818.97;;;4.03;100.00
44926;BME280;30662;51.210;7.656;2023-02-04T02:46:49;149817.72;;;4.03;100.00
44926;BME280;30662;51.210;7.656;2023-02-04T02:49:17;149829.09;;;4.07;100.00
44926;BME280;30662;51.210;7.656;2023-02-04T02:51:44;149830.34;;;4.08;100.00
44926;BME280;30662;51.210;7.656;2023-02-04T02:54:30;149834.09;;;4.09;100.00
44926;BME280;30662;51.210;7.656;2023-02-04T02:56:57;149841.66;;;4.12;100.00
44926;BME280;30662;51.210;7.656;2023-02-04T02:59:24;149840.38;;;4.12;100.00
44926;BME280;30662;51.210;7.656;2023-02-04T03:01:53;149825.31;;;4.06;100.00
44926;BME280;30662;51.210;7.656;2023-02-04T03:04:22;149835.34;;;4.10;100.00
44926;BME280;30662;51.210;7.656;2023-02-04T03:06:49;149834.09;;;4.09;100.00
44926;BME280;30662;51.210;7.656;2023-02-04T03:09:16;149842.94;;;4.13;100.00
44926;BME280;30662;51.210;7.656;2023-02-04T03:11:42;149821.50;;;4.04;100.00
44926;BME280;30662;51.210;7.656;2023-02-04T03:14:08;149844.22;;;4.13;100.00
44926;BME280;30662;51.210;7.656;2023-02-04T03:16:35;149826.56;;;4.06;100.00
44926;BME280;30662;51.210;7.656;2023-02-04T03:19:04;149805.13;;;3.98;100.00
44926;BME280;30662;51.210;7.656;2023-02-04T03:21:31;149840.38;;;4.12;100.00
44926;BME280;30662;51.210;7.656;2023-02-04T03:23:57;149801.34;;;3.96;100.00
44926;BME280;30662;51.210;7.656;2023-02-04T03:26:24;149847.97;;;4.15;100.00
44926;BME280;30662;51.210;7.656;2023-02-04T03:28:52;149864.34;;;4.22;100.00
44926;BME280;30662;51.210;7.656;2023-02-04T03:31:18;149826.56;;;4.06;100.00
44926;BME280;30662;51.210;7.656;2023-02-04T03:33:44;149834.09;;;4.09;100.00
44926;BME280;30662;51.210;7.656;2023-02-04T03:36:10;149870.63;;;4.24;100.00
44926;BME280;30662;51.210;7.656;2023-02-04T03:38:36;149839.13;;;4.11;100.00
44926;BME280;30662;51.210;7.656;2023-02-04T03:41:02;149821.50;;;4.04;100.00
44926;BME280;30662;51.210;7.656;2023-02-04T03:43:28;149821.50;;;4.04;100.00
44926;BME280;30662;51.210;7.656;2023-02-04T03:45:54;149834.09;;;4.09;100.00
44926;BME280;30662;51.210;7.656;2023-02-04T03:48:20;149831.59;;;4.08;100.00
44926;BME280;30662;51.210;7.656;2023-02-04T03:50:45;149830.34;;;4.08;100.00
44926;BME280;30662;51.210;7.656;2023-02-04T03:53:11;149829.09;;;4.07;100.00
44926;BME280;30662;51.210;7.656;2023-02-04T03:55:37;149820.22;;;4.04;100.00
44926;BME280;30662;51.210;7.656;2023-02-04T03:58:04;149854.25;;;4.18;100.00
44926;BME280;30662;51.210;7.656;2023-02-04T04:00:30;149846.72;;;4.14;100.00
44926;BME280;30662;51.210;7.656;2023-02-04T04:02:57;149871.91;;;4.25;100.00
44926;BME280;30662;51.210;7.656;2023-02-04T04:05:24;149832.84;;;4.09;100.00
44926;BME280;30662;51.210;7.656;2023-02-04T04:07:51;149847.97;;;4.15;100.00
44926;BME280;30662;51.210;7.656;2023-02-04T04:10:16;149842.94;;;4.13;100.00
44926;BME280;30662;51.210;7.656;2023-02-04T04:12:42;149856.75;;;4.19;100.00
44926;BME280;30662;51.210;7.656;2023-02-04T04:15:08;149834.09;;;4.09;100.00
44926;BME280;30662;51.210;7.656;2023-02-04T04:17:34;149829.09;;;4.07;100.00
44926;BME280;30662;51.210;7.656;2023-02-04T04:20:00;149850.47;;;4.16;100.00
44926;BME280;30662;51.210;7.656;2023-02-04T04:22:26;149839.13;;;4.11;100.00
44926;BME280;30662;51.210;7.656;2023-02-04T04:24:52;149846.72;;;4.14;100.00
44926;BME280;30662;51.210;7.656;2023-02-04T04:27:18;149810.19;;;4.00;100.00
44926;BME280;30662;51.210;7.656;2023-02-04T04:29:43;149803.84;;;3.97;100.00
44926;BME280;30662;51.210;7.656;2023-02-04T04:32:10;149813.97;;;4.01;100.00
44926;BME280;30662;51.210;7.656;2023-02-04T04:34:36;149798.84;;;3.95;100.00
44926;BME280;30662;51.210;7.656;2023-02-04T04:37:01;149821.50;;;4.04;100.00
44926;BME280;30662;51.210;7.656;2023-02-04T04:39:27;149831.59;;;4.08;100.00
44926;BME280;30662;51.210;7.656;2023-02-04T04:41:53;149825.31;;;4.06;100.00
44926;BME280;30662;51.210;7.656;2023-02-04T04:44:19;149807.69;;;3.99;100.00
44926;BME280;30662;51.210;7.656;2023-02-04T04:46:45;149853.00;;;4.17;100.00
44926;BME280;30662;51.210;7.656;2023-02-04T04:49:11;149850.47;;;4.16;100.00
44926;BME280;30662;51.210;7.656;2023-02-04T04:51:36;149827.81;;;4.07;100.00
44926;BME280;30662;51.210;7.656;2023-02-04T04:54:02;149822.75;;;4.05;100.00
44926;BME280;30662;51.210;7.656;2023-02-04T04:56:28;149810.19;;;4.00;100.00
44926;BME280;30662;51.210;7.656;2023-02-04T04:58:54;149829.09;;;4.07;100.00
44926;BME280;30662;51.210;7.656;2023-02-04T05:01:20;149825.31;;;4.06;100.00
44926;BME280;30662;51.210;7.656;2023-02-04T05:03:47;149835.34;;;4.10;100.00
44926;BME280;30662;51.210;7.656;2023-02-04T05:06:13;149840.38;;;4.12;100.00
44926;BME280;30662;51.210;7.656;2023-02-04T05:08:39;149841.66;;;4.12;100.00
44926;BME280;30662;51.210;7.656;2023-02-04T05:11:05;149816.47;;;4.02;100.00
44926;BME280;30662;51.210;7.656;2023-02-04T05:13:31;149811.44;;;4.00;100.00
44926;BME280;30662;51.210;7.656;2023-02-04T05:15:57;149830.34;;;4.08;100.00
44926;BME280;30662;51.210;7.656;2023-02-04T05:18:23;149818.97;;;4.03;100.00
44926;BME280;30662;51.210;7.656;2023-02-04T05:20:49;149836.63;;;4.10;100.00
44926;BME280;30662;51.210;7.656;2023-02-04T05:23:15;149831.59;;;4.08;100.00
44926;BME280;30662;51.210;7.656;2023-02-04T05:25:41;149830.34;;;4.08;100.00
44926;BME280;30662;51.210;7.656;2023-02-04T05:28:07;149832.84;;;4.09;100.00
44926;BME280;30662;51.210;7.656;2023-02-04T05:30:33;149826.56;;;4.06;100.00
44926;BME280;30662;51.210;7.656;2023-02-04T05:33:00;149813.97;;;4.01;100.00
44926;BME280;30662;51.210;7.656;2023-02-04T05:35:26;149817.72;;;4.03;100.00
44926;BME280;30662;51.210;7.656;2023-02-04T05:37:51;149824.00;;;4.05;100.00
44926;BME280;30662;51.210;7.656;2023-02-04T05:40:17;149839.13;;;4.11;100.00
44926;BME280;30662;51.210;7.656;2023-02-04T05:42:43;149855.50;;;4.18;100.00
44926;BME280;30662;51.210;7.656;2023-02-04T05:45:13;149830.34;;;4.08;100.00
44926;BME280;30662;51.210;7.656;2023-02-04T05:47:39;149820.22;;;4.04;100.00
44926;BME280;30662;51.210;7.656;2023-02-04T05:50:06;149806.38;;;3.98;100.00
44926;BME280;30662;51.210;7.656;2023-02-04T05:52:32;149803.84;;;3.97;100.00
44926;BME280;30662;51.210;7.656;2023-02-04T05:54:58;149831.59;;;4.08;100.00
44926;BME280;30662;51.210;7.656;2023-02-04T05:57:24;149826.56;;;4.06;100.00
44926;BME280;30662;51.210;7.656;2023-02-04T05:59:50;149827.81;;;4.07;100.00
44926;BME280;30662;51.210;7.656;2023-02-04T06:02:15;149832.84;;;4.09;100.00
44926;BME280;30662;51.210;7.656;2023-02-04T06:04:41;149830.34;;;4.08;100.00
44926;BME280;30662;51.210;7.656;2023-02-04T06:07:10;149821.50;;;4.04;100.00
44926;BME280;30662;51.210;7.656;2023-02-04T06:09:35;149824.00;;;4.05;100.00
44926;BME280;30662;51.210;7.656;2023-02-04T06:12:01;149864.34;;;4.22;100.00
44926;BME280;30662;51.210;7.656;2023-02-04T06:14:27;149831.59;;;4.08;100.00
44926;BME280;30662;51.210;7.656;2023-02-04T06:16:53;149821.50;;;4.04;100.00
44926;BME280;30662;51.210;7.656;2023-02-04T06:19:19;149816.47;;;4.02;100.00
44926;BME280;30662;51.210;7.656;2023-02-04T06:21:45;149820.22;;;4.04;100.00
44926;BME280;30662;51.210;7.656;2023-02-04T06:24:11;149820.22;;;4.04;100.00
44926;BME280;30662;51.210;7.656;2023-02-04T06:26:37;149827.81;;;4.07;100.00
44926;BME280;30662;51.210;7.656;2023-02-04T06:29:03;149829.09;;;4.07;100.00
44926;BME280;30662;51.210;7.656;2023-02-04T06:31:28;149816.47;;;4.02;100.00
44926;BME280;30662;51.210;7.656;2023-02-04T06:33:54;149826.56;;;4.06;100.00
44926;BME280;30662;51.210;7.656;2023-02-04T06:36:20;149822.75;;;4.05;100.00
44926;BME280;30662;51.210;7.656;2023-02-04T06:38:46;149786.22;;;3.90;100.00
44926;BME280;30662;51.210;7.656;2023-02-04T06:41:12;149783.72;;;3.89;100.00
44926;BME280;30662;51.210;7.656;2023-02-04T06:43:38;149810.19;;;4.00;100.00
44926;BME280;30662;51.210;7.656;2023-02-04T06:46:04;149815.22;;;4.02;100.00
44926;BME280;30662;51.210;7.656;2023-02-04T06:48:30;149777.44;;;3.86;100.00
44926;BME280;30662;51.210;7.656;2023-02-04T06:50:56;149803.84;;;3.97;100.00
44926;BME280;30662;51.210;7.656;2023-02-04T06:53:22;149800.09;;;3.96;100.00
44926;BME280;30662;51.210;7.656;2023-02-04T06:55:48;149812.69;;;4.01;100.00
44926;BME280;30662;51.210;7.656;2023-02-04T06:58:14;149837.88;;;4.11;100.00
44926;BME280;30662;51.210;7.656;2023-02-04T07:00:40;149835.34;;;4.10;100.00
44926;BME280;30662;51.210;7.656;2023-02-04T07:03:06;149851.75;;;4.17;100.00
44926;BME280;30662;51.210;7.656;2023-02-04T07:05:32;149836.63;;;4.10;100.00
44926;BME280;30662;51.210;7.656;2023-02-04T07:07:59;149818.97;;;4.03;100.00
44926;BME280;30662;51.210;7.656;2023-02-04T07:10:25;149825.31;;;4.06;100.00
44926;BME280;30662;51.210;7.656;2023-02-04T07:12:51;149806.38;;;3.98;100.00
44926;BME280;30662;51.210;7.656;2023-02-04T07:15:17;149811.44;;;4.00;100.00
44926;BME280;30662;51.210;7.656;2023-02-04T07:17:43;149811.44;;;4.00;100.00
44926;BME280;30662;51.210;7.656;2023-02-04T07:20:09;149802.59;;;3.97;100.00
44926;BME280;30662;51.210;7.656;2023-02-04T07:22:35;149829.09;;;4.07;100.00
44926;BME280;30662;51.210;7.656;2023-02-04T07:25:02;149827.81;;;4.07;100.00
44926;BME280;30662;51.210;7.656;2023-02-04T07:27:28;149807.69;;;3.99;100.00
44926;BME280;30662;51.210;7.656;2023-02-04T07:29:54;149821.50;;;4.04;100.00
44926;BME280;30662;51.210;7.656;2023-02-04T07:32:20;149837.88;;;4.11;100.00
44926;BME280;30662;51.210;7.656;2023-02-04T07:34:46;149841.66;;;4.12;100.00
44926;BME280;30662;51.210;7.656;2023-02-04T07:37:15;149853.00;;;4.17;100.00
44926;BME280;30662;51.210;7.656;2023-02-04T07:39:41;149834.09;;;4.09;100.00
44926;BME280;30662;51.210;7.656;2023-02-04T07:42:07;149853.00;;;4.17;100.00
44926;BME280;30662;51.210;7.656;2023-02-04T07:44:33;149845.47;;;4.14;100.00
44926;BME280;30662;51.210;7.656;2023-02-04T07:46:59;149860.59;;;4.20;100.00
44926;BME280;30662;51.210;7.656;2023-02-04T07:49:25;149885.75;;;4.30;100.00
44926;BME280;30662;51.210;7.656;2023-02-04T07:51:51;149890.78;;;4.32;100.00
44926;BME280;30662;51.210;7.656;2023-02-04T07:54:17;149887.03;;;4.31;100.00
44926;BME280;30662;51.210;7.656;2023-02-04T07:56:43;149879.47;;;4.28;100.00
44926;BME280;30662;51.210;7.656;2023-02-04T07:59:08;149861.84;;;4.21;100.00
44926;BME280;30662;51.210;7.656;2023-02-04T08:01:34;149846.72;;;4.14;100.00
44926;BME280;30662;51.210;7.656;2023-02-04T08:04:00;149879.47;;;4.28;100.00
44926;BME280;30662;51.210;7.656;2023-02-04T08:06:26;149898.38;;;4.35;100.00
44926;BME280;30662;51.210;7.656;2023-02-04T08:08:52;149914.75;;;4.42;100.00
44926;BME280;30662;51.210;7.656;2023-02-04T08:11:18;149895.81;;;4.34;100.00
44926;BME280;30662;51.210;7.656;2023-02-04T08:13:44;149893.31;;;4.33;100.00
44926;BME280;30662;51.210;7.656;2023-02-04T08:16:10;149902.16;;;4.37;100.00
44926;BME280;30662;51.210;7.656;2023-02-04T08:18:37;149912.19;;;4.41;100.00
44926;BME280;30662;51.210;7.656;2023-02-04T08:21:03;149904.66;;;4.38;100.00
44926;BME280;30662;51.210;7.656;2023-02-04T08:23:31;149912.19;;;4.41;100.00
44926;BME280;30662;51.210;7.656;2023-02-04T08:25:58;149922.31;;;4.45;100.00
44926;BME280;30662;51.210;7.656;2023-02-04T08:28:24;149924.81;;;4.46;100.00
44926;BME280;30662;51.210;7.656;2023-02-04T08:30:50;149908.44;;;4.39;100.00
44926;BME280;30662;51.210;7.656;2023-02-04T08:33:16;149932.41;;;4.49;100.00
44926;BME280;30662;51.210;7.656;2023-02-04T08:35:43;149934.91;;;4.50;100.00
44926;BME280;30662;51.210;7.656;2023-02-04T08:38:09;149951.31;;;4.57;100.00
44926;BME280;30662;51.210;7.656;2023-02-04T08:40:35;149958.84;;;4.60;100.00
44926;BME280;30662;51.210;7.656;2023-02-04T08:43:01;149947.47;;;4.55;100.00
44926;BME280;30662;51.210;7.656;2023-02-04T08:45:27;149956.34;;;4.59;100.00
44926;BME280;30662;51.210;7.656;2023-02-04T08:47:53;149939.94;;;4.52;100.00
44926;BME280;30662;51.210;7.656;2023-02-04T08:50:19;149952.56;;;4.57;100.00
44926;BME280;30662;51.210;7.656;2023-02-04T08:52:45;149982.78;;;4.69;100.00
44926;BME280;30662;51.210;7.656;2023-02-04T08:55:11;149982.78;;;4.69;100.00
44926;BME280;30662;51.210;7.656;2023-02-04T08:57:37;149987.84;;;4.72;100.00
44926;BME280;30662;51.210;7.656;2023-02-04T09:00:03;149972.72;;;4.65;100.00
44926;BME280;30662;51.210;7.656;2023-02-04T09:02:29;149962.63;;;4.61;100.00
44926;BME280;30662;51.210;7.656;2023-02-04T09:04:55;149965.13;;;4.62;100.00
44926;BME280;30662;51.210;7.656;2023-02-04T09:07:21;149977.75;;;4.67;100.00
44926;BME280;30662;51.210;7.656;2023-02-04T09:09:47;149996.66;;;4.75;100.00
44926;BME280;30662;51.210;7.656;2023-02-04T09:12:13;150000.41;;;4.77;100.00
44926;BME280;30662;51.210;7.656;2023-02-04T09:14:39;150030.69;;;4.89;100.00
44926;BME280;30662;51.210;7.656;2023-02-04T09:17:05;150053.38;;;4.98;100.00
44926;BME280;30662;51.210;7.656;2023-02-04T09:19:32;150044.56;;;4.94;100.00
44926;BME280;30662;51.210;7.656;2023-02-04T09:21:58;150047.06;;;4.95;100.00
44926;BME280;30662;51.210;7.656;2023-02-04T09:24:24;150043.31;;;4.94;100.00
44926;BME280;30662;51.210;7.656;2023-02-04T09:26:50;150065.97;;;5.03;100.00
44926;BME280;30662;51.210;7.656;2023-02-04T09:29:16;150078.59;;;5.08;100.00
44926;BME280;30662;51.210;7.656;2023-02-04T09:31:42;150079.88;;;5.09;100.00
44926;BME280;30662;51.210;7.656;2023-02-04T09:34:09;150110.09;;;5.21;100.00
44926;BME280;30662;51.210;7.656;2023-02-04T09:36:35;150100.03;;;5.17;100.00
44926;BME280;30662;51.210;7.656;2023-02-04T09:39:06;150131.56;;;5.30;100.00
44926;BME280;30662;51.210;7.656;2023-02-04T09:41:37;150149.22;;;5.37;100.00
44926;BME280;30662;51.210;7.656;2023-02-04T09:44:12;150158.03;;;5.40;100.00
44926;BME280;30662;51.210;7.656;2023-02-04T09:46:42;150173.16;;;5.46;100.00
44926;BME280;30662;51.210;7.656;2023-02-04T09:49:11;150179.44;;;5.49;100.00
44926;BME280;30662;51.210;7.656;2023-02-04T09:51:36;150258.94;;;5.81;100.00
44926;BME280;30662;51.210;7.656;2023-02-04T09:54:11;150357.38;;;6.21;100.00
44926;BME280;30662;51.210;7.656;2023-02-04T09:56:38;150391.44;;;6.34;100.00
44926;BME280;30662;51.210;7.656;2023-02-04T09:59:17;150396.47;;;6.36;100.00
44926;BME280;30662;51.210;7.656;2023-02-04T10:02:18;150344.78;;;6.16;100.00
44926;BME280;30662;51.210;7.656;2023-02-04T10:04:45;150370.00;;;6.26;100.00
44926;BME280;30662;51.210;7.656;2023-02-04T10:07:12;150529.03;;;6.90;100.00
44926;BME280;30662;51.210;7.656;2023-02-04T10:09:39;150801.84;;;8.00;100.00
44926;BME280;30662;51.210;7.656;2023-02-04T10:12:06;150801.84;;;8.00;100.00
44926;BME280;30662;51.210;7.656;2023-02-04T10:14:32;151674.91;;;11.51;83.85
44926;BME280;30662;51.210;7.656;2023-02-04T10:17:00;152580.72;;;15.15;57.11
44926;BME280;30662;51.210;7.656;2023-02-04T10:19:29;152972.16;;;16.72;49.83
44926;BME280;30662;51.210;7.656;2023-02-04T10:21:56;152795.47;;;16.01;49.49
44926;BME280;30662;51.210;7.656;2023-02-04T10:24:23;152208.75;;;13.66;57.39
44926;BME280;30662;51.210;7.656;2023-02-04T10:26:51;151696.47;;;11.60;68.47
44926;BME280;30662;51.210;7.656;2023-02-04T10:29:20;151338.06;;;10.16;79.84
44926;BME280;30662;51.210;7.656;2023-02-04T10:31:48;151016.75;;;8.87;90.19
44926;BME280;30662;51.210;7.656;2023-02-04T10:36:55;150618.69;;;7.26;100.00
44926;BME280;30662;51.210;7.656;2023-02-04T10:39:27;150546.72;;;6.97;100.00
44926;BME280;30662;51.210;7.656;2023-02-04T10:41:54;150541.63;;;6.95;100.00
44926;BME280;30662;51.210;7.656;2023-02-04T10:44:27;150563.13;;;7.04;100.00
44926;BME280;30662;51.210;7.656;2023-02-04T10:47:14;150868.84;;;8.27;100.00
44926;BME280;30662;51.210;7.656;2023-02-04T10:49:47;152066.63;;;13.09;72.69
44926;BME280;30662;51.210;7.656;2023-02-04T10:52:18;152326.78;;;14.13;59.05
44926;BME280;30662;51.210;7.656;2023-02-04T10:54:46;152032.38;;;12.95;60.75
44926;BME280;30662;51.210;7.656;2023-02-04T10:57:22;151584.97;;;11.15;71.63
44926;BME280;30662;51.210;7.656;2023-02-04T10:59:50;151284.91;;;9.94;80.94
44926;BME280;30662;51.210;7.656;2023-02-04T11:02:57;150939.66;;;8.55;90.75
44926;BME280;30662;51.210;7.656;2023-02-04T11:05:18;150652.78;;;7.40;100.00
44926;BME280;30662;51.210;7.656;2023-02-04T11:07:46;150570.69;;;7.07;100.00
44926;BME280;30662;51.210;7.656;2023-02-04T11:10:15;150593.41;;;7.16;100.00
44926;BME280;30662;51.210;7.656;2023-02-04T11:15:42;150503.75;;;6.80;100.00
44926;BME280;30662;51.210;7.656;2023-02-04T11:20:38;152202.41;;;13.63;65.61
44926;BME280;30662;51.210;7.656;2023-02-04T11:26:14;154082.63;;;21.16;35.45
44926;BME280;30662;51.210;7.656;2023-02-04T11:28:48;153640.31;;;19.39;37.28
44926;BME280;30662;51.210;7.656;2023-02-04T11:33:44;152022.25;;;12.91;53.68
44926;BME280;30662;51.210;7.656;2023-02-04T11:36:13;151530.50;;;10.93;67.20
44926;BME280;30662;51.210;7.656;2023-02-04T11:38:44;151289.97;;;9.97;74.90
44926;BME280;30662;51.210;7.656;2023-02-04T11:41:22;151077.44;;;9.11;79.11
44926;BME280;30662;51.210;7.656;2023-02-04T11:43:50;151011.72;;;8.84;82.94
44926;BME280;30662;51.210;7.656;2023-02-04T11:46:18;150918.13;;;8.47;85.53
44926;BME280;30662;51.210;7.656;2023-02-04T11:48:44;150776.59;;;7.90;89.99
44926;BME280;30662;51.210;7.656;2023-02-04T11:51:13;150679.28;;;7.51;94.13
44926;BME280;30662;51.210;7.656;2023-02-04T11:53:39;150622.47;;;7.28;94.45
44926;BME280;30662;51.210;7.656;2023-02-04T11:56:05;150563.13;;;7.04;97.78
44926;BME280;30662;51.210;7.656;2023-02-04T11:58:32;150583.34;;;7.12;98.24
44926;BME280;30662;51.210;7.656;2023-02-04T12:00:58;150563.13;;;7.04;97.95
44926;BME280;30662;51.210;7.656;2023-02-04T12:03:29;150641.41;;;7.35;96.32
44926;BME280;30662;51.210;7.656;2023-02-04T12:05:56;150662.88;;;7.44;95.17
44926;BME280;30662;51.210;7.656;2023-02-04T12:08:24;150685.59;;;7.53;92.50
44926;BME280;30662;51.210;7.656;2023-02-04T12:13:30;150609.81;;;7.23;92.95
44926;BME280;30662;51.210;7.656;2023-02-04T12:15:59;150570.69;;;7.07;91.96
44926;BME280;30662;51.210;7.656;2023-02-04T12:18:26;150465.91;;;6.64;95.15
44926;BME280;30662;51.210;7.656;2023-02-04T12:20:53;150474.75;;;6.68;94.39
44926;BME280;30662;51.210;7.656;2023-02-04T12:23:19;150473.50;;;6.68;95.83
44926;BME280;30662;51.210;7.656;2023-02-04T12:25:45;150452.00;;;6.59;98.10
44926;BME280;30662;51.210;7.656;2023-02-04T12:28:11;150474.75;;;6.68;97.51
44926;BME280;30662;51.210;7.656;2023-02-04T12:30:37;150421.75;;;6.47;100.00
44926;BME280;30662;51.210;7.656;2023-02-04T12:33:04;150460.88;;;6.62;100.00
44926;BME280;30662;51.210;7.656;2023-02-04T12:35:29;150486.09;;;6.73;100.00
44926;BME280;30662;51.210;7.656;2023-02-04T12:37:56;150486.09;;;6.73;100.00
44926;BME280;30662;51.210;7.656;2023-02-04T12:40:22;150487.34;;;6.73;100.00
44926;BME280;30662;51.210;7.656;2023-02-04T12:42:48;150474.75;;;6.68;98.83
44926;BME280;30662;51.210;7.656;2023-02-04T12:45:15;150503.75;;;6.80;99.67
44926;BME280;30662;51.210;7.656;2023-02-04T12:47:42;150559.31;;;7.02;98.81
44926;BME280;30662;51.210;7.656;2023-02-04T12:50:10;150648.97;;;7.38;97.89
44926;BME280;30662;51.210;7.656;2023-02-04T12:52:36;150822.06;;;8.08;91.14
44926;BME280;30662;51.210;7.656;2023-02-04T12:55:05;150895.41;;;8.38;84.12
44926;BME280;30662;51.210;7.656;2023-02-04T12:57:32;151016.75;;;8.87;77.70
44926;BME280;30662;51.210;7.656;2023-02-04T12:59:59;151101.50;;;9.21;77.18
44926;BME280;30662;51.210;7.656;2023-02-04T13:02:26;151095.16;;;9.18;76.60
44926;BME280;30662;51.210;7.656;2023-02-04T13:04:52;150956.09;;;8.62;80.96
44926;BME280;30662;51.210;7.656;2023-02-04T13:07:19;150814.50;;;8.05;83.58